Terminal Aerodrome Forecast
Issued by NWS Quad Cities IA IL

Home | Current Version | Previous Version | Text Only | Print | Product List | Glossary On
Versions: 1 2 3 4 5 6 7 8 9 10 11 12 13 14 15 16 17 18 19 20 21 22 23 24 25 26 27 28 29 30 31 32
642
FTUS43 KDVN 032324
TAFMLI
TAF
KMLI 032324Z 0400/0424 13007KT P6SM SCT035 OVC100
      TEMPO 0408/0410 6SM -SN BKN025
     FM041000 13007KT 3SM -SN BR OVC025
     FM041200 14008KT 1SM -SN BR OVC004
     FM042000 16006KT 2SM -SN BR OVC007=

USA.gov is the U.S. government's official web portal to all federal, state and local government web resources and services.